sensor_id;sensor_type;location;lat;lon;timestamp;P1;durP1;ratioP1;P2;durP2;ratioP2
4448;SDS011;2237;51.870;6.160;2023-06-26T00:00:21;8.10;;;5.20;;
4448;SDS011;2237;51.870;6.160;2023-06-26T00:02:48;7.30;;;5.00;;
4448;SDS011;2237;51.870;6.160;2023-06-26T00:05:15;7.88;;;5.32;;
4448;SDS011;2237;51.870;6.160;2023-06-26T00:07:42;7.03;;;5.78;;
4448;SDS011;2237;51.870;6.160;2023-06-26T00:10:10;6.78;;;4.95;;
4448;SDS011;2237;51.870;6.160;2023-06-26T00:12:36;7.40;;;5.10;;
4448;SDS011;2237;51.870;6.160;2023-06-26T00:15:03;7.80;;;5.75;;
4448;SDS011;2237;51.870;6.160;2023-06-26T00:17:30;7.32;;;5.53;;
4448;SDS011;2237;51.870;6.160;2023-06-26T00:19:56;7.55;;;5.63;;
4448;SDS011;2237;51.870;6.160;2023-06-26T00:22:22;7.70;;;5.60;;
4448;SDS011;2237;51.870;6.160;2023-06-26T00:24:49;10.00;;;5.93;;
4448;SDS011;2237;51.870;6.160;2023-06-26T00:27:15;7.78;;;5.43;;
4448;SDS011;2237;51.870;6.160;2023-06-26T00:29:42;9.88;;;5.53;;
4448;SDS011;2237;51.870;6.160;2023-06-26T00:32:08;7.90;;;5.40;;
4448;SDS011;2237;51.870;6.160;2023-06-26T00:34:34;8.68;;;5.57;;
4448;SDS011;2237;51.870;6.160;2023-06-26T00:37:01;8.82;;;5.93;;
4448;SDS011;2237;51.870;6.160;2023-06-26T00:39:27;7.30;;;5.45;;
4448;SDS011;2237;51.870;6.160;2023-06-26T00:41:54;8.23;;;5.15;;
4448;SDS011;2237;51.870;6.160;2023-06-26T00:44:20;7.53;;;4.90;;
4448;SDS011;2237;51.870;6.160;2023-06-26T00:46:47;9.30;;;5.75;;
4448;SDS011;2237;51.870;6.160;2023-06-26T00:49:14;9.00;;;5.72;;
4448;SDS011;2237;51.870;6.160;2023-06-26T00:51:40;8.55;;;5.25;;
4448;SDS011;2237;51.870;6.160;2023-06-26T00:54:07;6.45;;;5.13;;
4448;SDS011;2237;51.870;6.160;2023-06-26T00:56:34;7.65;;;5.60;;
4448;SDS011;2237;51.870;6.160;2023-06-26T00:59:01;7.40;;;5.47;;
4448;SDS011;2237;51.870;6.160;2023-06-26T01:01:27;8.30;;;5.35;;
4448;SDS011;2237;51.870;6.160;2023-06-26T01:03:54;6.85;;;5.30;;
4448;SDS011;2237;51.870;6.160;2023-06-26T01:06:21;7.15;;;5.93;;
4448;SDS011;2237;51.870;6.160;2023-06-26T01:08:49;7.80;;;5.80;;
4448;SDS011;2237;51.870;6.160;2023-06-26T01:11:17;7.88;;;5.70;;
4448;SDS011;2237;51.870;6.160;2023-06-26T01:13:44;9.57;;;5.72;;
4448;SDS011;2237;51.870;6.160;2023-06-26T01:16:11;8.27;;;5.88;;
4448;SDS011;2237;51.870;6.160;2023-06-26T01:18:40;8.13;;;5.63;;
4448;SDS011;2237;51.870;6.160;2023-06-26T01:21:08;9.23;;;6.28;;
4448;SDS011;2237;51.870;6.160;2023-06-26T01:23:45;8.00;;;5.55;;
4448;SDS011;2237;51.870;6.160;2023-06-26T01:26:23;7.97;;;5.80;;
4448;SDS011;2237;51.870;6.160;2023-06-26T01:28:53;7.45;;;5.78;;
4448;SDS011;2237;51.870;6.160;2023-06-26T01:31:19;7.22;;;5.80;;
4448;SDS011;2237;51.870;6.160;2023-06-26T01:33:46;7.22;;;5.45;;
4448;SDS011;2237;51.870;6.160;2023-06-26T01:36:13;8.50;;;5.80;;
4448;SDS011;2237;51.870;6.160;2023-06-26T01:38:39;9.38;;;5.28;;
4448;SDS011;2237;51.870;6.160;2023-06-26T01:41:06;9.27;;;5.85;;
4448;SDS011;2237;51.870;6.160;2023-06-26T01:46:04;7.20;;;5.88;;
4448;SDS011;2237;51.870;6.160;2023-06-26T01:48:34;8.95;;;6.05;;
4448;SDS011;2237;51.870;6.160;2023-06-26T01:51:12;10.25;;;7.47;;
4448;SDS011;2237;51.870;6.160;2023-06-26T01:53:41;9.80;;;6.63;;
4448;SDS011;2237;51.870;6.160;2023-06-26T01:58:43;11.00;;;7.10;;
4448;SDS011;2237;51.870;6.160;2023-06-26T02:01:11;9.95;;;7.20;;
4448;SDS011;2237;51.870;6.160;2023-06-26T02:03:38;11.88;;;6.95;;
4448;SDS011;2237;51.870;6.160;2023-06-26T02:06:05;10.82;;;6.95;;
4448;SDS011;2237;51.870;6.160;2023-06-26T02:08:31;9.50;;;6.95;;
4448;SDS011;2237;51.870;6.160;2023-06-26T02:10:57;9.20;;;7.07;;
4448;SDS011;2237;51.870;6.160;2023-06-26T02:13:24;12.05;;;7.45;;
4448;SDS011;2237;51.870;6.160;2023-06-26T02:15:50;11.25;;;7.80;;
4448;SDS011;2237;51.870;6.160;2023-06-26T02:18:17;10.88;;;7.38;;
4448;SDS011;2237;51.870;6.160;2023-06-26T02:20:43;11.02;;;7.95;;
4448;SDS011;2237;51.870;6.160;2023-06-26T02:23:10;9.48;;;7.25;;
4448;SDS011;2237;51.870;6.160;2023-06-26T02:25:36;11.43;;;7.18;;
4448;SDS011;2237;51.870;6.160;2023-06-26T02:28:03;10.88;;;7.63;;
4448;SDS011;2237;51.870;6.160;2023-06-26T02:30:29;7.88;;;5.63;;
4448;SDS011;2237;51.870;6.160;2023-06-26T02:32:55;8.10;;;6.00;;
4448;SDS011;2237;51.870;6.160;2023-06-26T02:35:22;8.30;;;5.65;;
4448;SDS011;2237;51.870;6.160;2023-06-26T02:37:48;6.60;;;3.60;;
4448;SDS011;2237;51.870;6.160;2023-06-26T02:40:15;8.77;;;6.00;;
4448;SDS011;2237;51.870;6.160;2023-06-26T02:42:41;7.15;;;5.07;;
4448;SDS011;2237;51.870;6.160;2023-06-26T02:45:08;10.50;;;5.05;;
4448;SDS011;2237;51.870;6.160;2023-06-26T02:47:35;6.88;;;4.07;;
4448;SDS011;2237;51.870;6.160;2023-06-26T02:50:06;6.60;;;4.22;;
4448;SDS011;2237;51.870;6.160;2023-06-26T02:52:33;6.47;;;4.45;;
4448;SDS011;2237;51.870;6.160;2023-06-26T02:54:59;6.38;;;4.15;;
4448;SDS011;2237;51.870;6.160;2023-06-26T02:57:26;7.25;;;3.78;;
4448;SDS011;2237;51.870;6.160;2023-06-26T02:59:52;7.82;;;3.80;;
4448;SDS011;2237;51.870;6.160;2023-06-26T03:02:18;7.25;;;3.83;;
4448;SDS011;2237;51.870;6.160;2023-06-26T03:04:45;8.30;;;4.38;;
4448;SDS011;2237;51.870;6.160;2023-06-26T03:07:11;6.70;;;3.85;;
4448;SDS011;2237;51.870;6.160;2023-06-26T03:09:38;8.00;;;4.45;;
4448;SDS011;2237;51.870;6.160;2023-06-26T03:12:04;6.28;;;4.13;;
4448;SDS011;2237;51.870;6.160;2023-06-26T03:14:31;8.40;;;4.25;;
4448;SDS011;2237;51.870;6.160;2023-06-26T03:16:58;7.30;;;3.70;;
4448;SDS011;2237;51.870;6.160;2023-06-26T03:19:25;5.78;;;3.83;;
4448;SDS011;2237;51.870;6.160;2023-06-26T03:21:51;6.50;;;3.55;;
4448;SDS011;2237;51.870;6.160;2023-06-26T03:24:18;6.20;;;3.75;;
4448;SDS011;2237;51.870;6.160;2023-06-26T03:26:44;7.38;;;3.47;;
4448;SDS011;2237;51.870;6.160;2023-06-26T03:29:10;8.13;;;3.72;;
4448;SDS011;2237;51.870;6.160;2023-06-26T03:31:37;7.25;;;3.10;;
4448;SDS011;2237;51.870;6.160;2023-06-26T03:34:04;7.35;;;3.25;;
4448;SDS011;2237;51.870;6.160;2023-06-26T03:36:30;8.65;;;3.58;;
4448;SDS011;2237;51.870;6.160;2023-06-26T03:38:56;7.15;;;3.45;;
4448;SDS011;2237;51.870;6.160;2023-06-26T03:41:23;7.65;;;3.05;;
4448;SDS011;2237;51.870;6.160;2023-06-26T03:43:50;5.05;;;2.35;;
4448;SDS011;2237;51.870;6.160;2023-06-26T03:46:16;7.85;;;3.38;;
4448;SDS011;2237;51.870;6.160;2023-06-26T03:48:43;6.25;;;3.17;;
4448;SDS011;2237;51.870;6.160;2023-06-26T03:51:09;7.13;;;3.05;;
4448;SDS011;2237;51.870;6.160;2023-06-26T03:53:36;6.80;;;2.55;;
4448;SDS011;2237;51.870;6.160;2023-06-26T03:56:02;8.65;;;3.60;;
4448;SDS011;2237;51.870;6.160;2023-06-26T03:58:28;7.78;;;2.60;;
4448;SDS011;2237;51.870;6.160;2023-06-26T04:00:55;5.95;;;2.53;;
4448;SDS011;2237;51.870;6.160;2023-06-26T04:03:22;6.05;;;3.10;;
4448;SDS011;2237;51.870;6.160;2023-06-26T04:05:48;9.02;;;2.95;;
4448;SDS011;2237;51.870;6.160;2023-06-26T04:08:15;12.55;;;3.08;;
4448;SDS011;2237;51.870;6.160;2023-06-26T04:10:41;6.40;;;2.47;;
4448;SDS011;2237;51.870;6.160;2023-06-26T04:13:08;4.95;;;2.13;;
4448;SDS011;2237;51.870;6.160;2023-06-26T04:15:34;11.13;;;3.03;;
4448;SDS011;2237;51.870;6.160;2023-06-26T04:18:01;8.18;;;3.30;;
4448;SDS011;2237;51.870;6.160;2023-06-26T04:20:27;7.63;;;3.25;;
4448;SDS011;2237;51.870;6.160;2023-06-26T04:22:54;8.75;;;2.92;;
4448;SDS011;2237;51.870;6.160;2023-06-26T04:25:20;9.23;;;3.13;;
4448;SDS011;2237;51.870;6.160;2023-06-26T04:27:47;9.43;;;3.83;;
4448;SDS011;2237;51.870;6.160;2023-06-26T04:30:13;7.13;;;2.78;;
4448;SDS011;2237;51.870;6.160;2023-06-26T04:32:40;7.63;;;3.10;;
4448;SDS011;2237;51.870;6.160;2023-06-26T04:35:06;9.23;;;3.17;;
4448;SDS011;2237;51.870;6.160;2023-06-26T04:37:33;10.15;;;3.28;;
4448;SDS011;2237;51.870;6.160;2023-06-26T04:39:59;8.20;;;3.22;;
4448;SDS011;2237;51.870;6.160;2023-06-26T04:42:26;9.57;;;3.47;;
4448;SDS011;2237;51.870;6.160;2023-06-26T04:44:52;12.00;;;3.35;;
4448;SDS011;2237;51.870;6.160;2023-06-26T04:47:18;13.13;;;3.47;;
4448;SDS011;2237;51.870;6.160;2023-06-26T04:49:45;5.57;;;1.98;;
4448;SDS011;2237;51.870;6.160;2023-06-26T04:52:12;12.25;;;2.80;;
4448;SDS011;2237;51.870;6.160;2023-06-26T04:54:39;8.65;;;3.22;;
4448;SDS011;2237;51.870;6.160;2023-06-26T04:57:06;7.32;;;2.80;;
4448;SDS011;2237;51.870;6.160;2023-06-26T04:59:32;10.00;;;3.20;;
4448;SDS011;2237;51.870;6.160;2023-06-26T05:01:58;12.52;;;3.42;;
4448;SDS011;2237;51.870;6.160;2023-06-26T05:04:25;10.90;;;3.40;;
4448;SDS011;2237;51.870;6.160;2023-06-26T05:06:51;9.48;;;3.83;;
4448;SDS011;2237;51.870;6.160;2023-06-26T05:09:18;14.65;;;3.42;;
4448;SDS011;2237;51.870;6.160;2023-06-26T05:11:44;8.15;;;2.90;;
4448;SDS011;2237;51.870;6.160;2023-06-26T05:14:10;10.25;;;3.47;;
4448;SDS011;2237;51.870;6.160;2023-06-26T05:16:38;12.57;;;4.05;;
4448;SDS011;2237;51.870;6.160;2023-06-26T05:19:05;11.45;;;4.00;;
4448;SDS011;2237;51.870;6.160;2023-06-26T05:21:31;12.75;;;4.25;;
4448;SDS011;2237;51.870;6.160;2023-06-26T05:23:58;13.35;;;3.58;;
4448;SDS011;2237;51.870;6.160;2023-06-26T05:26:25;21.63;;;4.35;;
4448;SDS011;2237;51.870;6.160;2023-06-26T05:28:52;11.43;;;3.50;;
4448;SDS011;2237;51.870;6.160;2023-06-26T05:31:19;12.43;;;3.78;;
4448;SDS011;2237;51.870;6.160;2023-06-26T05:33:46;9.50;;;3.55;;
4448;SDS011;2237;51.870;6.160;2023-06-26T05:36:13;14.15;;;3.75;;
4448;SDS011;2237;51.870;6.160;2023-06-26T05:38:42;10.77;;;3.42;;
4448;SDS011;2237;51.870;6.160;2023-06-26T05:41:09;12.13;;;3.33;;
4448;SDS011;2237;51.870;6.160;2023-06-26T05:43:35;7.20;;;3.40;;
4448;SDS011;2237;51.870;6.160;2023-06-26T05:46:02;6.60;;;2.15;;
4448;SDS011;2237;51.870;6.160;2023-06-26T05:48:28;9.38;;;3.53;;
4448;SDS011;2237;51.870;6.160;2023-06-26T05:50:55;11.95;;;3.63;;
4448;SDS011;2237;51.870;6.160;2023-06-26T05:53:21;8.60;;;2.58;;
4448;SDS011;2237;51.870;6.160;2023-06-26T05:55:48;11.18;;;3.63;;
4448;SDS011;2237;51.870;6.160;2023-06-26T05:58:15;10.00;;;3.97;;
4448;SDS011;2237;51.870;6.160;2023-06-26T06:00:44;12.82;;;3.63;;
4448;SDS011;2237;51.870;6.160;2023-06-26T06:03:10;9.05;;;3.60;;
4448;SDS011;2237;51.870;6.160;2023-06-26T06:05:37;8.63;;;2.53;;
4448;SDS011;2237;51.870;6.160;2023-06-26T06:08:03;15.50;;;3.35;;
4448;SDS011;2237;51.870;6.160;2023-06-26T06:10:30;7.18;;;1.80;;
4448;SDS011;2237;51.870;6.160;2023-06-26T06:12:57;10.00;;;3.08;;
4448;SDS011;2237;51.870;6.160;2023-06-26T06:15:23;12.98;;;3.03;;
4448;SDS011;2237;51.870;6.160;2023-06-26T06:17:50;8.65;;;2.50;;
4448;SDS011;2237;51.870;6.160;2023-06-26T06:20:17;11.85;;;3.13;;
4448;SDS011;2237;51.870;6.160;2023-06-26T06:22:46;8.82;;;2.33;;
4448;SDS011;2237;51.870;6.160;2023-06-26T06:25:14;14.80;;;2.78;;
4448;SDS011;2237;51.870;6.160;2023-06-26T06:27:41;8.18;;;2.90;;
4448;SDS011;2237;51.870;6.160;2023-06-26T06:30:08;10.07;;;2.35;;
4448;SDS011;2237;51.870;6.160;2023-06-26T06:32:35;6.18;;;1.92;;
4448;SDS011;2237;51.870;6.160;2023-06-26T06:35:01;6.57;;;2.10;;
4448;SDS011;2237;51.870;6.160;2023-06-26T06:37:38;7.47;;;2.10;;
4448;SDS011;2237;51.870;6.160;2023-06-26T06:40:05;4.97;;;1.65;;
4448;SDS011;2237;51.870;6.160;2023-06-26T06:42:32;5.53;;;2.03;;
4448;SDS011;2237;51.870;6.160;2023-06-26T06:45:02;5.50;;;1.67;;
4448;SDS011;2237;51.870;6.160;2023-06-26T06:47:30;7.30;;;2.22;;
4448;SDS011;2237;51.870;6.160;2023-06-26T06:49:57;6.28;;;2.55;;
4448;SDS011;2237;51.870;6.160;2023-06-26T06:52:24;5.07;;;2.03;;
4448;SDS011;2237;51.870;6.160;2023-06-26T06:54:55;5.80;;;2.40;;
4448;SDS011;2237;51.870;6.160;2023-06-26T06:57:24;4.90;;;1.65;;
4448;SDS011;2237;51.870;6.160;2023-06-26T06:59:51;6.80;;;2.30;;
4448;SDS011;2237;51.870;6.160;2023-06-26T07:02:17;3.10;;;1.35;;
4448;SDS011;2237;51.870;6.160;2023-06-26T07:04:44;6.20;;;2.05;;
4448;SDS011;2237;51.870;6.160;2023-06-26T07:07:11;6.28;;;2.00;;
4448;SDS011;2237;51.870;6.160;2023-06-26T07:09:39;3.95;;;1.60;;
4448;SDS011;2237;51.870;6.160;2023-06-26T07:12:06;4.97;;;1.80;;
4448;SDS011;2237;51.870;6.160;2023-06-26T07:14:33;3.53;;;1.20;;
4448;SDS011;2237;51.870;6.160;2023-06-26T07:16:59;5.53;;;2.05;;
4448;SDS011;2237;51.870;6.160;2023-06-26T07:19:25;4.85;;;1.27;;
4448;SDS011;2237;51.870;6.160;2023-06-26T07:21:52;4.57;;;1.95;;
4448;SDS011;2237;51.870;6.160;2023-06-26T07:24:18;3.08;;;1.58;;
4448;SDS011;2237;51.870;6.160;2023-06-26T07:26:45;2.50;;;1.20;;
4448;SDS011;2237;51.870;6.160;2023-06-26T07:29:15;4.03;;;1.67;;
4448;SDS011;2237;51.870;6.160;2023-06-26T07:31:41;2.72;;;1.42;;
4448;SDS011;2237;51.870;6.160;2023-06-26T07:34:08;4.22;;;1.77;;
4448;SDS011;2237;51.870;6.160;2023-06-26T07:36:34;3.60;;;1.67;;
4448;SDS011;2237;51.870;6.160;2023-06-26T07:39:01;3.28;;;1.38;;
4448;SDS011;2237;51.870;6.160;2023-06-26T07:41:27;6.80;;;1.83;;
4448;SDS011;2237;51.870;6.160;2023-06-26T07:43:55;3.75;;;1.50;;
4448;SDS011;2237;51.870;6.160;2023-06-26T07:46:21;4.28;;;1.60;;
4448;SDS011;2237;51.870;6.160;2023-06-26T07:48:48;4.60;;;1.80;;
4448;SDS011;2237;51.870;6.160;2023-06-26T07:51:14;4.28;;;1.63;;
4448;SDS011;2237;51.870;6.160;2023-06-26T07:53:41;3.97;;;2.22;;
4448;SDS011;2237;51.870;6.160;2023-06-26T07:56:08;5.45;;;1.77;;
4448;SDS011;2237;51.870;6.160;2023-06-26T07:58:34;5.25;;;1.95;;
4448;SDS011;2237;51.870;6.160;2023-06-26T08:01:02;3.28;;;1.27;;
4448;SDS011;2237;51.870;6.160;2023-06-26T08:03:29;3.70;;;1.52;;
4448;SDS011;2237;51.870;6.160;2023-06-26T08:06:01;9.77;;;2.67;;
4448;SDS011;2237;51.870;6.160;2023-06-26T08:08:28;5.63;;;1.85;;
4448;SDS011;2237;51.870;6.160;2023-06-26T08:10:54;4.68;;;2.08;;
4448;SDS011;2237;51.870;6.160;2023-06-26T08:13:20;2.83;;;1.65;;
4448;SDS011;2237;51.870;6.160;2023-06-26T08:15:47;4.90;;;1.75;;
4448;SDS011;2237;51.870;6.160;2023-06-26T08:18:13;3.70;;;2.00;;
4448;SDS011;2237;51.870;6.160;2023-06-26T08:20:40;4.72;;;2.00;;
4448;SDS011;2237;51.870;6.160;2023-06-26T08:23:06;6.95;;;2.60;;
4448;SDS011;2237;51.870;6.160;2023-06-26T08:25:33;8.00;;;1.95;;
4448;SDS011;2237;51.870;6.160;2023-06-26T08:27:59;4.97;;;2.00;;
4448;SDS011;2237;51.870;6.160;2023-06-26T08:30:26;6.68;;;2.22;;
4448;SDS011;2237;51.870;6.160;2023-06-26T08:32:57;5.50;;;2.13;;
4448;SDS011;2237;51.870;6.160;2023-06-26T08:35:24;5.80;;;1.98;;
4448;SDS011;2237;51.870;6.160;2023-06-26T08:37:50;5.63;;;2.30;;
4448;SDS011;2237;51.870;6.160;2023-06-26T08:40:17;5.38;;;2.22;;
4448;SDS011;2237;51.870;6.160;2023-06-26T08:42:45;7.75;;;2.78;;
4448;SDS011;2237;51.870;6.160;2023-06-26T08:45:11;3.72;;;2.20;;
4448;SDS011;2237;51.870;6.160;2023-06-26T08:47:39;7.88;;;2.17;;
4448;SDS011;2237;51.870;6.160;2023-06-26T08:50:10;6.30;;;2.45;;
4448;SDS011;2237;51.870;6.160;2023-06-26T08:55:33;4.10;;;1.70;;
4448;SDS011;2237;51.870;6.160;2023-06-26T08:58:04;2.45;;;1.45;;
4448;SDS011;2237;51.870;6.160;2023-06-26T09:00:33;5.65;;;2.15;;
4448;SDS011;2237;51.870;6.160;2023-06-26T09:03:00;5.25;;;1.90;;
4448;SDS011;2237;51.870;6.160;2023-06-26T09:05:29;4.00;;;1.77;;
4448;SDS011;2237;51.870;6.160;2023-06-26T09:07:58;7.85;;;2.35;;
4448;SDS011;2237;51.870;6.160;2023-06-26T09:10:24;5.18;;;2.25;;
4448;SDS011;2237;51.870;6.160;2023-06-26T09:12:51;3.45;;;1.77;;
4448;SDS011;2237;51.870;6.160;2023-06-26T09:15:21;2.90;;;1.17;;
4448;SDS011;2237;51.870;6.160;2023-06-26T09:17:48;3.30;;;1.20;;
4448;SDS011;2237;51.870;6.160;2023-06-26T09:20:15;3.13;;;1.25;;
4448;SDS011;2237;51.870;6.160;2023-06-26T09:22:42;3.40;;;1.65;;
4448;SDS011;2237;51.870;6.160;2023-06-26T09:25:13;3.22;;;0.88;;
4448;SDS011;2237;51.870;6.160;2023-06-26T09:27:40;7.15;;;1.88;;
4448;SDS011;2237;51.870;6.160;2023-06-26T09:30:09;3.92;;;1.58;;
4448;SDS011;2237;51.870;6.160;2023-06-26T09:32:36;1.50;;;0.80;;
4448;SDS011;2237;51.870;6.160;2023-06-26T09:35:03;2.63;;;1.20;;
4448;SDS011;2237;51.870;6.160;2023-06-26T09:37:30;2.10;;;1.20;;
4448;SDS011;2237;51.870;6.160;2023-06-26T09:39:56;4.20;;;0.90;;
4448;SDS011;2237;51.870;6.160;2023-06-26T09:42:24;2.97;;;0.85;;
4448;SDS011;2237;51.870;6.160;2023-06-26T09:44:50;3.97;;;1.20;;
4448;SDS011;2237;51.870;6.160;2023-06-26T09:47:20;5.65;;;1.35;;
4448;SDS011;2237;51.870;6.160;2023-06-26T09:49:50;3.90;;;1.25;;
4448;SDS011;2237;51.870;6.160;2023-06-26T09:52:18;3.05;;;1.00;;
4448;SDS011;2237;51.870;6.160;2023-06-26T09:54:48;1.80;;;0.60;;
4448;SDS011;2237;51.870;6.160;2023-06-26T09:57:18;4.80;;;0.95;;
4448;SDS011;2237;51.870;6.160;2023-06-26T09:59:45;4.30;;;1.10;;
4448;SDS011;2237;51.870;6.160;2023-06-26T10:02:11;1.48;;;0.70;;
4448;SDS011;2237;51.870;6.160;2023-06-26T10:04:39;4.95;;;1.13;;
4448;SDS011;2237;51.870;6.160;2023-06-26T10:07:06;3.35;;;0.88;;
4448;SDS011;2237;51.870;6.160;2023-06-26T10:09:35;1.48;;;0.52;;
4448;SDS011;2237;51.870;6.160;2023-06-26T10:12:20;2.25;;;0.60;;
4448;SDS011;2237;51.870;6.160;2023-06-26T10:14:53;2.63;;;0.70;;
4448;SDS011;2237;51.870;6.160;2023-06-26T10:17:24;2.55;;;0.63;;
4448;SDS011;2237;51.870;6.160;2023-06-26T10:19:53;2.13;;;0.82;;
4448;SDS011;2237;51.870;6.160;2023-06-26T10:22:24;1.48;;;0.65;;
4448;SDS011;2237;51.870;6.160;2023-06-26T10:24:55;1.45;;;0.70;;
4448;SDS011;2237;51.870;6.160;2023-06-26T10:27:25;4.93;;;0.98;;
4448;SDS011;2237;51.870;6.160;2023-06-26T10:30:01;2.20;;;0.70;;
4448;SDS011;2237;51.870;6.160;2023-06-26T10:32:31;3.60;;;0.82;;
4448;SDS011;2237;51.870;6.160;2023-06-26T10:34:58;4.07;;;0.85;;
4448;SDS011;2237;51.870;6.160;2023-06-26T10:37:44;4.15;;;0.75;;
4448;SDS011;2237;51.870;6.160;2023-06-26T10:40:13;3.70;;;0.63;;
4448;SDS011;2237;51.870;6.160;2023-06-26T10:42:40;1.38;;;0.60;;
4448;SDS011;2237;51.870;6.160;2023-06-26T10:45:11;0.88;;;0.55;;
4448;SDS011;2237;51.870;6.160;2023-06-26T10:47:40;3.30;;;0.63;;
4448;SDS011;2237;51.870;6.160;2023-06-26T10:50:24;10.43;;;1.00;;
4448;SDS011;2237;51.870;6.160;2023-06-26T10:55:48;1.65;;;0.57;;
4448;SDS011;2237;51.870;6.160;2023-06-26T11:03:59;3.55;;;0.73;;
4448;SDS011;2237;51.870;6.160;2023-06-26T11:06:28;2.53;;;0.75;;
4448;SDS011;2237;51.870;6.160;2023-06-26T11:09:17;3.30;;;0.65;;
4448;SDS011;2237;51.870;6.160;2023-06-26T11:12:16;2.63;;;0.60;;
4448;SDS011;2237;51.870;6.160;2023-06-26T11:14:36;1.20;;;0.50;;
4448;SDS011;2237;51.870;6.160;2023-06-26T11:17:02;0.93;;;0.60;;
4448;SDS011;2237;51.870;6.160;2023-06-26T11:19:30;0.73;;;0.60;;
4448;SDS011;2237;51.870;6.160;2023-06-26T11:21:57;0.98;;;0.50;;
4448;SDS011;2237;51.870;6.160;2023-06-26T11:24:33;3.33;;;0.60;;
4448;SDS011;2237;51.870;6.160;2023-06-26T11:27:00;0.65;;;0.32;;
4448;SDS011;2237;51.870;6.160;2023-06-26T11:29:29;0.93;;;0.40;;
4448;SDS011;2237;51.870;6.160;2023-06-26T11:32:00;7.68;;;0.65;;
4448;SDS011;2237;51.870;6.160;2023-06-26T11:34:30;2.55;;;0.50;;
4448;SDS011;2237;51.870;6.160;2023-06-26T11:36:57;4.18;;;0.80;;
4448;SDS011;2237;51.870;6.160;2023-06-26T11:39:24;2.05;;;0.47;;
4448;SDS011;2237;51.870;6.160;2023-06-26T11:41:51;1.30;;;0.40;;
4448;SDS011;2237;51.870;6.160;2023-06-26T11:44:17;2.30;;;0.80;;
4448;SDS011;2237;51.870;6.160;2023-06-26T11:46:46;6.75;;;0.70;;
4448;SDS011;2237;51.870;6.160;2023-06-26T11:49:15;2.33;;;0.70;;
4448;SDS011;2237;51.870;6.160;2023-06-26T11:51:42;1.50;;;0.63;;
4448;SDS011;2237;51.870;6.160;2023-06-26T11:54:09;5.78;;;0.80;;
4448;SDS011;2237;51.870;6.160;2023-06-26T11:56:35;0.60;;;0.50;;
4448;SDS011;2237;51.870;6.160;2023-06-26T11:59:03;2.75;;;0.73;;
4448;SDS011;2237;51.870;6.160;2023-06-26T12:01:33;1.95;;;0.75;;
4448;SDS011;2237;51.870;6.160;2023-06-26T12:06:39;3.45;;;0.73;;
4448;SDS011;2237;51.870;6.160;2023-06-26T12:09:09;2.17;;;0.50;;
4448;SDS011;2237;51.870;6.160;2023-06-26T12:11:41;4.68;;;0.80;;
4448;SDS011;2237;51.870;6.160;2023-06-26T12:14:09;2.38;;;0.73;;
4448;SDS011;2237;51.870;6.160;2023-06-26T12:16:37;3.13;;;0.40;;
4448;SDS011;2237;51.870;6.160;2023-06-26T12:19:07;2.37;;;0.70;;
4448;SDS011;2237;51.870;6.160;2023-06-26T12:24:04;2.85;;;0.73;;
4448;SDS011;2237;51.870;6.160;2023-06-26T12:26:32;3.05;;;0.70;;
4448;SDS011;2237;51.870;6.160;2023-06-26T12:29:06;3.33;;;0.90;;
4448;SDS011;2237;51.870;6.160;2023-06-26T12:31:43;3.00;;;0.70;;
4448;SDS011;2237;51.870;6.160;2023-06-26T12:34:12;6.05;;;0.80;;
4448;SDS011;2237;51.870;6.160;2023-06-26T12:36:43;1.88;;;0.52;;
4448;SDS011;2237;51.870;6.160;2023-06-26T12:39:11;4.18;;;1.15;;
4448;SDS011;2237;51.870;6.160;2023-06-26T12:41:48;11.65;;;0.90;;
4448;SDS011;2237;51.870;6.160;2023-06-26T12:44:16;1.17;;;0.63;;
4448;SDS011;2237;51.870;6.160;2023-06-26T12:46:47;2.00;;;0.50;;
4448;SDS011;2237;51.870;6.160;2023-06-26T12:49:19;2.50;;;0.95;;
4448;SDS011;2237;51.870;6.160;2023-06-26T12:51:49;1.90;;;0.70;;
4448;SDS011;2237;51.870;6.160;2023-06-26T12:54:15;2.70;;;0.52;;
4448;SDS011;2237;51.870;6.160;2023-06-26T12:56:42;2.50;;;0.65;;
4448;SDS011;2237;51.870;6.160;2023-06-26T12:59:08;1.60;;;0.70;;
4448;SDS011;2237;51.870;6.160;2023-06-26T13:01:35;1.95;;;0.70;;
4448;SDS011;2237;51.870;6.160;2023-06-26T13:04:02;1.95;;;0.60;;
4448;SDS011;2237;51.870;6.160;2023-06-26T13:06:29;2.85;;;0.50;;
4448;SDS011;2237;51.870;6.160;2023-06-26T13:08:55;1.85;;;0.50;;
4448;SDS011;2237;51.870;6.160;2023-06-26T13:11:22;1.42;;;0.60;;
4448;SDS011;2237;51.870;6.160;2023-06-26T13:13:51;6.13;;;0.70;;
4448;SDS011;2237;51.870;6.160;2023-06-26T13:16:36;1.98;;;0.57;;
4448;SDS011;2237;51.870;6.160;2023-06-26T13:19:02;4.22;;;0.50;;
4448;SDS011;2237;51.870;6.160;2023-06-26T13:21:29;3.30;;;0.70;;
4448;SDS011;2237;51.870;6.160;2023-06-26T13:23:55;1.90;;;0.57;;
4448;SDS011;2237;51.870;6.160;2023-06-26T13:26:22;2.38;;;0.52;;
4448;SDS011;2237;51.870;6.160;2023-06-26T13:29:03;6.85;;;0.60;;
4448;SDS011;2237;51.870;6.160;2023-06-26T13:31:30;1.95;;;0.68;;
4448;SDS011;2237;51.870;6.160;2023-06-26T13:33:59;3.70;;;0.60;;
4448;SDS011;2237;51.870;6.160;2023-06-26T13:36:26;2.97;;;0.93;;
4448;SDS011;2237;51.870;6.160;2023-06-26T13:38:53;0.45;;;0.40;;
4448;SDS011;2237;51.870;6.160;2023-06-26T13:41:23;2.22;;;0.68;;
4448;SDS011;2237;51.870;6.160;2023-06-26T13:43:50;1.52;;;0.60;;
4448;SDS011;2237;51.870;6.160;2023-06-26T13:46:17;2.20;;;0.40;;
4448;SDS011;2237;51.870;6.160;2023-06-26T13:48:44;1.58;;;0.43;;
4448;SDS011;2237;51.870;6.160;2023-06-26T13:51:11;0.80;;;0.40;;
4448;SDS011;2237;51.870;6.160;2023-06-26T13:53:38;1.02;;;0.50;;
4448;SDS011;2237;51.870;6.160;2023-06-26T13:56:04;6.63;;;0.93;;
4448;SDS011;2237;51.870;6.160;2023-06-26T13:58:31;1.63;;;0.57;;
4448;SDS011;2237;51.870;6.160;2023-06-26T14:00:59;1.08;;;0.60;;
4448;SDS011;2237;51.870;6.160;2023-06-26T14:03:26;1.80;;;0.63;;
4448;SDS011;2237;51.870;6.160;2023-06-26T14:05:54;3.33;;;0.70;;
4448;SDS011;2237;51.870;6.160;2023-06-26T14:08:20;1.25;;;0.80;;
4448;SDS011;2237;51.870;6.160;2023-06-26T14:10:47;2.00;;;0.70;;
4448;SDS011;2237;51.870;6.160;2023-06-26T14:13:13;2.10;;;0.70;;
4448;SDS011;2237;51.870;6.160;2023-06-26T14:15:41;2.97;;;0.65;;
4448;SDS011;2237;51.870;6.160;2023-06-26T14:18:08;2.03;;;0.70;;
4448;SDS011;2237;51.870;6.160;2023-06-26T14:20:35;2.08;;;0.68;;
4448;SDS011;2237;51.870;6.160;2023-06-26T14:23:03;1.08;;;0.57;;
4448;SDS011;2237;51.870;6.160;2023-06-26T14:25:30;1.85;;;0.68;;
4448;SDS011;2237;51.870;6.160;2023-06-26T14:27:57;2.28;;;0.60;;
4448;SDS011;2237;51.870;6.160;2023-06-26T14:30:24;3.17;;;0.90;;
4448;SDS011;2237;51.870;6.160;2023-06-26T14:32:51;2.80;;;0.80;;
4448;SDS011;2237;51.870;6.160;2023-06-26T14:35:18;1.73;;;0.50;;
4448;SDS011;2237;51.870;6.160;2023-06-26T14:37:44;1.40;;;0.60;;
4448;SDS011;2237;51.870;6.160;2023-06-26T14:40:11;1.67;;;0.60;;
4448;SDS011;2237;51.870;6.160;2023-06-26T14:42:38;2.67;;;0.80;;
4448;SDS011;2237;51.870;6.160;2023-06-26T14:45:05;1.42;;;0.50;;
4448;SDS011;2237;51.870;6.160;2023-06-26T14:47:33;2.97;;;0.90;;
4448;SDS011;2237;51.870;6.160;2023-06-26T14:49:59;3.15;;;0.55;;
4448;SDS011;2237;51.870;6.160;2023-06-26T14:52:26;1.83;;;0.60;;
4448;SDS011;2237;51.870;6.160;2023-06-26T14:54:52;3.30;;;0.70;;
4448;SDS011;2237;51.870;6.160;2023-06-26T14:57:19;2.90;;;0.57;;
4448;SDS011;2237;51.870;6.160;2023-06-26T14:59:45;2.97;;;0.68;;
4448;SDS011;2237;51.870;6.160;2023-06-26T15:02:12;2.45;;;0.60;;
4448;SDS011;2237;51.870;6.160;2023-06-26T15:04:38;2.30;;;0.60;;
4448;SDS011;2237;51.870;6.160;2023-06-26T15:07:04;7.03;;;0.65;;
4448;SDS011;2237;51.870;6.160;2023-06-26T15:09:31;1.75;;;0.88;;
4448;SDS011;2237;51.870;6.160;2023-06-26T15:11:58;1.30;;;0.50;;
4448;SDS011;2237;51.870;6.160;2023-06-26T15:14:24;1.23;;;0.68;;
4448;SDS011;2237;51.870;6.160;2023-06-26T15:16:51;2.53;;;0.70;;
4448;SDS011;2237;51.870;6.160;2023-06-26T15:19:17;2.33;;;0.90;;
4448;SDS011;2237;51.870;6.160;2023-06-26T15:21:44;3.22;;;0.70;;
4448;SDS011;2237;51.870;6.160;2023-06-26T15:24:10;1.85;;;0.60;;
4448;SDS011;2237;51.870;6.160;2023-06-26T15:26:37;3.20;;;1.00;;
4448;SDS011;2237;51.870;6.160;2023-06-26T15:29:03;1.00;;;0.50;;
4448;SDS011;2237;51.870;6.160;2023-06-26T15:31:30;2.20;;;0.70;;
4448;SDS011;2237;51.870;6.160;2023-06-26T15:33:57;2.38;;;0.52;;
4448;SDS011;2237;51.870;6.160;2023-06-26T15:36:23;1.20;;;0.50;;
4448;SDS011;2237;51.870;6.160;2023-06-26T15:38:50;2.30;;;0.82;;